sensor_id;sensor_type;location;lat;lon;timestamp;P1;durP1;ratioP1;P2;durP2;ratioP2
55288;SDS011;41154;45.394;5.734;2022-08-25T00:01:29;6.38;;;4.20;;
55288;SDS011;41154;45.394;5.734;2022-08-25T00:03:57;7.65;;;4.63;;
55288;SDS011;41154;45.394;5.734;2022-08-25T00:06:24;5.32;;;4.57;;
55288;SDS011;41154;45.394;5.734;2022-08-25T00:08:51;7.63;;;4.47;;
55288;SDS011;41154;45.394;5.734;2022-08-25T00:11:18;5.40;;;4.00;;
55288;SDS011;41154;45.394;5.734;2022-08-25T00:13:47;6.30;;;4.13;;
55288;SDS011;41154;45.394;5.734;2022-08-25T00:16:18;7.18;;;4.53;;
55288;SDS011;41154;45.394;5.734;2022-08-25T00:18:48;7.95;;;4.38;;
55288;SDS011;41154;45.394;5.734;2022-08-25T00:21:16;8.60;;;4.40;;
55288;SDS011;41154;45.394;5.734;2022-08-25T00:23:41;4.80;;;4.20;;
55288;SDS011;41154;45.394;5.734;2022-08-25T00:26:08;4.82;;;4.32;;
55288;SDS011;41154;45.394;5.734;2022-08-25T00:28:34;4.40;;;4.00;;
55288;SDS011;41154;45.394;5.734;2022-08-25T00:31:01;4.90;;;4.43;;
55288;SDS011;41154;45.394;5.734;2022-08-25T00:33:27;6.95;;;4.20;;
55288;SDS011;41154;45.394;5.734;2022-08-25T00:35:55;4.80;;;4.28;;
55288;SDS011;41154;45.394;5.734;2022-08-25T00:38:22;5.20;;;4.53;;
55288;SDS011;41154;45.394;5.734;2022-08-25T00:40:48;4.82;;;4.35;;
55288;SDS011;41154;45.394;5.734;2022-08-25T00:46:04;26.88;;;6.35;;
55288;SDS011;41154;45.394;5.734;2022-08-25T00:48:31;6.85;;;4.68;;
55288;SDS011;41154;45.394;5.734;2022-08-25T00:50:57;4.57;;;3.67;;
55288;SDS011;41154;45.394;5.734;2022-08-25T00:53:24;5.68;;;3.80;;
55288;SDS011;41154;45.394;5.734;2022-08-25T00:55:50;5.53;;;3.95;;
55288;SDS011;41154;45.394;5.734;2022-08-25T00:58:20;4.35;;;3.78;;
55288;SDS011;41154;45.394;5.734;2022-08-25T01:00:53;4.50;;;3.90;;
55288;SDS011;41154;45.394;5.734;2022-08-25T01:03:21;7.00;;;4.10;;
55288;SDS011;41154;45.394;5.734;2022-08-25T01:05:48;7.38;;;4.15;;
55288;SDS011;41154;45.394;5.734;2022-08-25T01:08:15;4.05;;;3.65;;
55288;SDS011;41154;45.394;5.734;2022-08-25T01:10:45;6.50;;;4.40;;
55288;SDS011;41154;45.394;5.734;2022-08-25T01:13:21;4.90;;;3.75;;
55288;SDS011;41154;45.394;5.734;2022-08-25T01:15:52;5.47;;;4.00;;
55288;SDS011;41154;45.394;5.734;2022-08-25T01:18:20;4.05;;;3.67;;
55288;SDS011;41154;45.394;5.734;2022-08-25T01:20:47;6.40;;;4.00;;
55288;SDS011;41154;45.394;5.734;2022-08-25T01:23:14;4.93;;;4.30;;
55288;SDS011;41154;45.394;5.734;2022-08-25T01:25:58;4.57;;;4.03;;
55288;SDS011;41154;45.394;5.734;2022-08-25T01:28:28;5.72;;;3.95;;
55288;SDS011;41154;45.394;5.734;2022-08-25T01:30:54;5.88;;;4.13;;
55288;SDS011;41154;45.394;5.734;2022-08-25T01:33:20;4.40;;;3.95;;
55288;SDS011;41154;45.394;5.734;2022-08-25T01:35:46;5.40;;;3.90;;
55288;SDS011;41154;45.394;5.734;2022-08-25T01:38:12;5.10;;;3.92;;
55288;SDS011;41154;45.394;5.734;2022-08-25T01:40:39;6.35;;;4.15;;
55288;SDS011;41154;45.394;5.734;2022-08-25T01:45:39;6.65;;;4.10;;
55288;SDS011;41154;45.394;5.734;2022-08-25T01:48:07;6.07;;;3.97;;
55288;SDS011;41154;45.394;5.734;2022-08-25T01:50:34;8.02;;;4.30;;
55288;SDS011;41154;45.394;5.734;2022-08-25T01:53:06;4.30;;;3.90;;
55288;SDS011;41154;45.394;5.734;2022-08-25T01:55:36;6.05;;;4.53;;
55288;SDS011;41154;45.394;5.734;2022-08-25T01:58:42;4.82;;;4.32;;
55288;SDS011;41154;45.394;5.734;2022-08-25T02:01:09;6.15;;;4.10;;
55288;SDS011;41154;45.394;5.734;2022-08-25T02:03:38;7.03;;;4.32;;
55288;SDS011;41154;45.394;5.734;2022-08-25T02:06:05;7.82;;;4.40;;
55288;SDS011;41154;45.394;5.734;2022-08-25T02:08:32;6.72;;;5.03;;
55288;SDS011;41154;45.394;5.734;2022-08-25T02:10:58;5.10;;;4.60;;
55288;SDS011;41154;45.394;5.734;2022-08-25T02:13:24;5.75;;;4.30;;
55288;SDS011;41154;45.394;5.734;2022-08-25T02:15:50;5.35;;;4.50;;
55288;SDS011;41154;45.394;5.734;2022-08-25T02:18:21;5.63;;;4.55;;
55288;SDS011;41154;45.394;5.734;2022-08-25T02:20:47;5.18;;;4.63;;
55288;SDS011;41154;45.394;5.734;2022-08-25T02:23:13;7.07;;;4.50;;
55288;SDS011;41154;45.394;5.734;2022-08-25T02:25:39;6.50;;;4.35;;
55288;SDS011;41154;45.394;5.734;2022-08-25T02:28:06;5.63;;;4.78;;
55288;SDS011;41154;45.394;5.734;2022-08-25T02:30:33;7.28;;;4.60;;
55288;SDS011;41154;45.394;5.734;2022-08-25T02:33:00;10.63;;;4.60;;
55288;SDS011;41154;45.394;5.734;2022-08-25T02:35:28;5.72;;;4.43;;
55288;SDS011;41154;45.394;5.734;2022-08-25T02:37:54;6.78;;;4.45;;
55288;SDS011;41154;45.394;5.734;2022-08-25T02:40:22;5.50;;;4.45;;
55288;SDS011;41154;45.394;5.734;2022-08-25T02:42:48;5.40;;;4.90;;
55288;SDS011;41154;45.394;5.734;2022-08-25T02:45:16;7.57;;;5.60;;
55288;SDS011;41154;45.394;5.734;2022-08-25T02:47:42;6.82;;;4.78;;
55288;SDS011;41154;45.394;5.734;2022-08-25T02:50:09;6.38;;;5.03;;
55288;SDS011;41154;45.394;5.734;2022-08-25T02:52:36;7.63;;;5.32;;
55288;SDS011;41154;45.394;5.734;2022-08-25T02:55:03;9.57;;;5.18;;
55288;SDS011;41154;45.394;5.734;2022-08-25T02:57:32;6.65;;;4.82;;
55288;SDS011;41154;45.394;5.734;2022-08-25T02:59:58;7.40;;;5.20;;
55288;SDS011;41154;45.394;5.734;2022-08-25T03:02:25;5.60;;;4.55;;
55288;SDS011;41154;45.394;5.734;2022-08-25T03:04:52;7.28;;;5.38;;
55288;SDS011;41154;45.394;5.734;2022-08-25T03:07:19;6.68;;;5.20;;
55288;SDS011;41154;45.394;5.734;2022-08-25T03:09:45;9.05;;;5.68;;
55288;SDS011;41154;45.394;5.734;2022-08-25T03:12:11;9.23;;;5.68;;
55288;SDS011;41154;45.394;5.734;2022-08-25T03:14:38;8.90;;;4.68;;
55288;SDS011;41154;45.394;5.734;2022-08-25T03:17:05;6.68;;;4.53;;
55288;SDS011;41154;45.394;5.734;2022-08-25T03:19:32;5.07;;;4.53;;
55288;SDS011;41154;45.394;5.734;2022-08-25T03:21:58;8.10;;;4.78;;
55288;SDS011;41154;45.394;5.734;2022-08-25T03:24:25;6.10;;;4.90;;
55288;SDS011;41154;45.394;5.734;2022-08-25T03:26:51;7.00;;;5.32;;
55288;SDS011;41154;45.394;5.734;2022-08-25T03:29:18;7.28;;;5.20;;
55288;SDS011;41154;45.394;5.734;2022-08-25T03:31:49;8.25;;;5.57;;
55288;SDS011;41154;45.394;5.734;2022-08-25T03:34:17;9.57;;;5.65;;
55288;SDS011;41154;45.394;5.734;2022-08-25T03:36:44;6.22;;;4.70;;
55288;SDS011;41154;45.394;5.734;2022-08-25T03:39:12;6.53;;;4.60;;
55288;SDS011;41154;45.394;5.734;2022-08-25T03:41:38;5.32;;;4.00;;
55288;SDS011;41154;45.394;5.734;2022-08-25T03:44:05;5.70;;;4.25;;
55288;SDS011;41154;45.394;5.734;2022-08-25T03:46:36;6.88;;;4.40;;
55288;SDS011;41154;45.394;5.734;2022-08-25T03:49:05;6.18;;;4.47;;
55288;SDS011;41154;45.394;5.734;2022-08-25T03:51:34;7.38;;;4.57;;
55288;SDS011;41154;45.394;5.734;2022-08-25T03:54:03;6.25;;;5.00;;
55288;SDS011;41154;45.394;5.734;2022-08-25T03:56:29;6.13;;;4.75;;
55288;SDS011;41154;45.394;5.734;2022-08-25T03:58:55;6.32;;;5.00;;
55288;SDS011;41154;45.394;5.734;2022-08-25T04:01:22;6.25;;;4.82;;
55288;SDS011;41154;45.394;5.734;2022-08-25T04:03:51;7.63;;;5.40;;
55288;SDS011;41154;45.394;5.734;2022-08-25T04:06:17;6.95;;;5.45;;
55288;SDS011;41154;45.394;5.734;2022-08-25T04:08:44;5.75;;;4.95;;
55288;SDS011;41154;45.394;5.734;2022-08-25T04:11:12;10.43;;;5.03;;
55288;SDS011;41154;45.394;5.734;2022-08-25T04:13:43;7.88;;;4.82;;
55288;SDS011;41154;45.394;5.734;2022-08-25T04:16:11;6.75;;;4.88;;
55288;SDS011;41154;45.394;5.734;2022-08-25T04:18:47;6.75;;;5.47;;
55288;SDS011;41154;45.394;5.734;2022-08-25T04:21:16;12.93;;;6.40;;
55288;SDS011;41154;45.394;5.734;2022-08-25T04:23:43;10.55;;;6.10;;
55288;SDS011;41154;45.394;5.734;2022-08-25T04:26:11;10.02;;;6.50;;
55288;SDS011;41154;45.394;5.734;2022-08-25T04:28:40;7.57;;;5.38;;
55288;SDS011;41154;45.394;5.734;2022-08-25T04:31:07;6.72;;;5.80;;
55288;SDS011;41154;45.394;5.734;2022-08-25T04:33:34;9.98;;;5.68;;
55288;SDS011;41154;45.394;5.734;2022-08-25T04:36:02;8.95;;;5.60;;
55288;SDS011;41154;45.394;5.734;2022-08-25T04:38:28;8.38;;;5.63;;
55288;SDS011;41154;45.394;5.734;2022-08-25T04:40:58;9.10;;;5.75;;
55288;SDS011;41154;45.394;5.734;2022-08-25T04:43:25;7.72;;;5.28;;
55288;SDS011;41154;45.394;5.734;2022-08-25T04:45:51;10.18;;;5.53;;
55288;SDS011;41154;45.394;5.734;2022-08-25T04:48:18;9.93;;;5.53;;
55288;SDS011;41154;45.394;5.734;2022-08-25T04:50:44;7.70;;;5.10;;
55288;SDS011;41154;45.394;5.734;2022-08-25T04:53:10;6.72;;;5.32;;
55288;SDS011;41154;45.394;5.734;2022-08-25T04:55:46;5.30;;;4.70;;
55288;SDS011;41154;45.394;5.734;2022-08-25T04:58:13;6.88;;;5.10;;
55288;SDS011;41154;45.394;5.734;2022-08-25T05:00:40;7.60;;;5.68;;
55288;SDS011;41154;45.394;5.734;2022-08-25T05:03:07;8.30;;;5.10;;
55288;SDS011;41154;45.394;5.734;2022-08-25T05:05:34;5.88;;;5.00;;
55288;SDS011;41154;45.394;5.734;2022-08-25T05:08:02;7.95;;;5.07;;
55288;SDS011;41154;45.394;5.734;2022-08-25T05:10:28;10.45;;;5.50;;
55288;SDS011;41154;45.394;5.734;2022-08-25T05:12:54;5.90;;;4.78;;
55288;SDS011;41154;45.394;5.734;2022-08-25T05:15:20;8.18;;;5.30;;
55288;SDS011;41154;45.394;5.734;2022-08-25T05:18:04;6.93;;;5.63;;
55288;SDS011;41154;45.394;5.734;2022-08-25T05:20:30;7.60;;;5.03;;
55288;SDS011;41154;45.394;5.734;2022-08-25T05:22:56;7.57;;;5.05;;
55288;SDS011;41154;45.394;5.734;2022-08-25T05:25:23;8.02;;;4.95;;
55288;SDS011;41154;45.394;5.734;2022-08-25T05:27:48;8.07;;;5.18;;
55288;SDS011;41154;45.394;5.734;2022-08-25T05:30:14;6.28;;;5.13;;
55288;SDS011;41154;45.394;5.734;2022-08-25T05:32:40;6.28;;;4.55;;
55288;SDS011;41154;45.394;5.734;2022-08-25T05:35:06;5.15;;;4.65;;
55288;SDS011;41154;45.394;5.734;2022-08-25T05:37:32;5.53;;;5.03;;
55288;SDS011;41154;45.394;5.734;2022-08-25T05:39:59;6.20;;;5.60;;
55288;SDS011;41154;45.394;5.734;2022-08-25T05:42:25;7.10;;;5.50;;
55288;SDS011;41154;45.394;5.734;2022-08-25T05:44:52;8.80;;;5.22;;
55288;SDS011;41154;45.394;5.734;2022-08-25T05:47:19;6.65;;;5.57;;
55288;SDS011;41154;45.394;5.734;2022-08-25T05:49:45;9.30;;;5.30;;
55288;SDS011;41154;45.394;5.734;2022-08-25T05:52:11;6.07;;;5.22;;
55288;SDS011;41154;45.394;5.734;2022-08-25T05:54:37;7.75;;;5.22;;
55288;SDS011;41154;45.394;5.734;2022-08-25T05:57:04;5.50;;;5.00;;
55288;SDS011;41154;45.394;5.734;2022-08-25T05:59:31;7.75;;;5.25;;
55288;SDS011;41154;45.394;5.734;2022-08-25T06:01:57;5.70;;;5.10;;
55288;SDS011;41154;45.394;5.734;2022-08-25T06:04:41;8.70;;;4.72;;
55288;SDS011;41154;45.394;5.734;2022-08-25T06:07:07;5.95;;;5.32;;
55288;SDS011;41154;45.394;5.734;2022-08-25T06:09:33;5.38;;;4.88;;
55288;SDS011;41154;45.394;5.734;2022-08-25T06:12:01;8.07;;;5.28;;
55288;SDS011;41154;45.394;5.734;2022-08-25T06:14:27;6.22;;;5.57;;
55288;SDS011;41154;45.394;5.734;2022-08-25T06:16:53;5.80;;;5.20;;
55288;SDS011;41154;45.394;5.734;2022-08-25T06:19:19;6.57;;;5.47;;
55288;SDS011;41154;45.394;5.734;2022-08-25T06:21:45;5.70;;;4.57;;
55288;SDS011;41154;45.394;5.734;2022-08-25T06:24:11;8.13;;;4.20;;
55288;SDS011;41154;45.394;5.734;2022-08-25T06:26:36;5.50;;;4.25;;
55288;SDS011;41154;45.394;5.734;2022-08-25T06:29:02;4.68;;;4.20;;
55288;SDS011;41154;45.394;5.734;2022-08-25T06:31:29;4.10;;;3.70;;
55288;SDS011;41154;45.394;5.734;2022-08-25T06:33:54;5.28;;;3.88;;
55288;SDS011;41154;45.394;5.734;2022-08-25T06:36:21;4.20;;;3.80;;
55288;SDS011;41154;45.394;5.734;2022-08-25T06:38:47;4.00;;;3.60;;
55288;SDS011;41154;45.394;5.734;2022-08-25T06:41:13;5.40;;;3.60;;
55288;SDS011;41154;45.394;5.734;2022-08-25T06:43:40;6.15;;;3.80;;
55288;SDS011;41154;45.394;5.734;2022-08-25T06:46:11;5.35;;;3.40;;
55288;SDS011;41154;45.394;5.734;2022-08-25T06:48:38;5.32;;;3.28;;
55288;SDS011;41154;45.394;5.734;2022-08-25T06:51:08;3.95;;;3.10;;
55288;SDS011;41154;45.394;5.734;2022-08-25T06:53:36;5.40;;;3.17;;
55288;SDS011;41154;45.394;5.734;2022-08-25T06:56:03;6.63;;;4.05;;
55288;SDS011;41154;45.394;5.734;2022-08-25T06:58:29;7.93;;;5.25;;
55288;SDS011;41154;45.394;5.734;2022-08-25T07:00:56;8.73;;;5.50;;
55288;SDS011;41154;45.394;5.734;2022-08-25T07:03:31;10.40;;;5.68;;
55288;SDS011;41154;45.394;5.734;2022-08-25T07:05:57;7.30;;;4.18;;
55288;SDS011;41154;45.394;5.734;2022-08-25T07:08:23;5.53;;;3.42;;
55288;SDS011;41154;45.394;5.734;2022-08-25T07:10:49;7.18;;;3.67;;
55288;SDS011;41154;45.394;5.734;2022-08-25T07:13:15;7.45;;;5.07;;
55288;SDS011;41154;45.394;5.734;2022-08-25T07:15:41;8.15;;;5.00;;
55288;SDS011;41154;45.394;5.734;2022-08-25T07:18:08;7.25;;;4.03;;
55288;SDS011;41154;45.394;5.734;2022-08-25T07:20:39;5.40;;;3.90;;
55288;SDS011;41154;45.394;5.734;2022-08-25T07:23:05;6.22;;;4.35;;
55288;SDS011;41154;45.394;5.734;2022-08-25T07:25:32;5.38;;;3.92;;
55288;SDS011;41154;45.394;5.734;2022-08-25T07:27:59;6.22;;;3.55;;
55288;SDS011;41154;45.394;5.734;2022-08-25T07:30:25;5.15;;;3.92;;
55288;SDS011;41154;45.394;5.734;2022-08-25T07:32:52;4.65;;;3.80;;
55288;SDS011;41154;45.394;5.734;2022-08-25T07:35:18;6.05;;;3.72;;
55288;SDS011;41154;45.394;5.734;2022-08-25T07:37:51;4.60;;;3.70;;
55288;SDS011;41154;45.394;5.734;2022-08-25T07:40:27;5.18;;;3.42;;
55288;SDS011;41154;45.394;5.734;2022-08-25T07:42:56;5.38;;;3.58;;
55288;SDS011;41154;45.394;5.734;2022-08-25T07:45:25;4.60;;;3.67;;
55288;SDS011;41154;45.394;5.734;2022-08-25T07:50:23;8.95;;;3.70;;
55288;SDS011;41154;45.394;5.734;2022-08-25T07:52:49;9.27;;;3.50;;
55288;SDS011;41154;45.394;5.734;2022-08-25T07:55:15;5.28;;;3.20;;
55288;SDS011;41154;45.394;5.734;2022-08-25T07:57:41;7.80;;;3.17;;
55288;SDS011;41154;45.394;5.734;2022-08-25T08:00:11;5.68;;;3.05;;
55288;SDS011;41154;45.394;5.734;2022-08-25T08:02:39;5.10;;;3.00;;
55288;SDS011;41154;45.394;5.734;2022-08-25T08:05:06;8.45;;;3.40;;
55288;SDS011;41154;45.394;5.734;2022-08-25T08:07:32;6.35;;;3.50;;
55288;SDS011;41154;45.394;5.734;2022-08-25T08:09:58;6.43;;;3.35;;
55288;SDS011;41154;45.394;5.734;2022-08-25T08:12:24;3.60;;;3.17;;
55288;SDS011;41154;45.394;5.734;2022-08-25T08:14:51;7.38;;;3.47;;
55288;SDS011;41154;45.394;5.734;2022-08-25T08:17:17;9.30;;;3.17;;
55288;SDS011;41154;45.394;5.734;2022-08-25T08:19:43;4.57;;;3.60;;
55288;SDS011;41154;45.394;5.734;2022-08-25T08:22:09;7.10;;;2.85;;
55288;SDS011;41154;45.394;5.734;2022-08-25T08:24:35;4.40;;;2.90;;
55288;SDS011;41154;45.394;5.734;2022-08-25T08:27:06;3.78;;;3.03;;
55288;SDS011;41154;45.394;5.734;2022-08-25T08:29:33;5.00;;;2.97;;
55288;SDS011;41154;45.394;5.734;2022-08-25T08:32:01;3.97;;;2.80;;
55288;SDS011;41154;45.394;5.734;2022-08-25T08:34:28;5.35;;;2.70;;
55288;SDS011;41154;45.394;5.734;2022-08-25T08:36:55;3.88;;;2.65;;
55288;SDS011;41154;45.394;5.734;2022-08-25T08:39:21;3.92;;;3.00;;
55288;SDS011;41154;45.394;5.734;2022-08-25T08:41:56;2.80;;;2.60;;
55288;SDS011;41154;45.394;5.734;2022-08-25T08:47:15;3.03;;;2.72;;
55288;SDS011;41154;45.394;5.734;2022-08-25T08:53:10;2.63;;;2.42;;
55288;SDS011;41154;45.394;5.734;2022-08-25T09:00:51;5.30;;;2.63;;
55288;SDS011;41154;45.394;5.734;2022-08-25T09:08:52;4.40;;;2.60;;
55288;SDS011;41154;45.394;5.734;2022-08-25T09:20:20;2.95;;;2.60;;
55288;SDS011;41154;45.394;5.734;2022-08-25T09:25:52;2.58;;;2.38;;
55288;SDS011;41154;45.394;5.734;2022-08-25T09:33:46;4.93;;;3.08;;
55288;SDS011;41154;45.394;5.734;2022-08-25T09:36:12;4.43;;;2.95;;
55288;SDS011;41154;45.394;5.734;2022-08-25T09:38:38;4.68;;;2.92;;
55288;SDS011;41154;45.394;5.734;2022-08-25T09:41:05;4.63;;;3.30;;
55288;SDS011;41154;45.394;5.734;2022-08-25T09:43:33;3.65;;;3.05;;
55288;SDS011;41154;45.394;5.734;2022-08-25T09:46:07;3.30;;;3.00;;
55288;SDS011;41154;45.394;5.734;2022-08-25T09:53:54;3.75;;;2.95;;
55288;SDS011;41154;45.394;5.734;2022-08-25T09:56:23;3.30;;;2.97;;
55288;SDS011;41154;45.394;5.734;2022-08-25T09:58:52;4.32;;;3.40;;
55288;SDS011;41154;45.394;5.734;2022-08-25T10:01:20;3.25;;;2.92;;
55288;SDS011;41154;45.394;5.734;2022-08-25T10:04:00;3.10;;;2.78;;
55288;SDS011;41154;45.394;5.734;2022-08-25T10:06:41;3.20;;;2.78;;
55288;SDS011;41154;45.394;5.734;2022-08-25T10:09:09;3.40;;;3.10;;
55288;SDS011;41154;45.394;5.734;2022-08-25T10:11:47;3.22;;;2.92;;
55288;SDS011;41154;45.394;5.734;2022-08-25T10:16:41;4.10;;;2.80;;
55288;SDS011;41154;45.394;5.734;2022-08-25T10:19:12;4.18;;;2.80;;
55288;SDS011;41154;45.394;5.734;2022-08-25T10:22:09;3.47;;;3.00;;
55288;SDS011;41154;45.394;5.734;2022-08-25T10:24:38;3.55;;;2.90;;
55288;SDS011;41154;45.394;5.734;2022-08-25T10:35:19;5.15;;;3.00;;
55288;SDS011;41154;45.394;5.734;2022-08-25T10:41:10;3.67;;;3.05;;
55288;SDS011;41154;45.394;5.734;2022-08-25T10:43:46;2.67;;;2.42;;
55288;SDS011;41154;45.394;5.734;2022-08-25T10:46:22;3.65;;;2.60;;
55288;SDS011;41154;45.394;5.734;2022-08-25T10:49:08;3.22;;;2.63;;
55288;SDS011;41154;45.394;5.734;2022-08-25T11:05:11;4.45;;;2.38;;
55288;SDS011;41154;45.394;5.734;2022-08-25T11:07:41;2.30;;;1.80;;
55288;SDS011;41154;45.394;5.734;2022-08-25T11:10:14;3.35;;;1.60;;
55288;SDS011;41154;45.394;5.734;2022-08-25T11:12:45;3.20;;;1.55;;
55288;SDS011;41154;45.394;5.734;2022-08-25T11:15:27;2.33;;;1.70;;
55288;SDS011;41154;45.394;5.734;2022-08-25T11:18:06;3.20;;;1.83;;
55288;SDS011;41154;45.394;5.734;2022-08-25T11:20:41;2.65;;;1.50;;
55288;SDS011;41154;45.394;5.734;2022-08-25T11:23:30;1.60;;;1.45;;
55288;SDS011;41154;45.394;5.734;2022-08-25T11:28:34;1.83;;;1.60;;
55288;SDS011;41154;45.394;5.734;2022-08-25T11:31:07;1.98;;;1.52;;
55288;SDS011;41154;45.394;5.734;2022-08-25T11:33:34;1.83;;;1.40;;
55288;SDS011;41154;45.394;5.734;2022-08-25T11:36:05;1.92;;;1.65;;
55288;SDS011;41154;45.394;5.734;2022-08-25T11:52:04;1.70;;;1.60;;
55288;SDS011;41154;45.394;5.734;2022-08-25T11:54:46;2.63;;;1.70;;
55288;SDS011;41154;45.394;5.734;2022-08-25T12:02:35;3.78;;;1.80;;
55288;SDS011;41154;45.394;5.734;2022-08-25T12:05:09;2.60;;;1.98;;
55288;SDS011;41154;45.394;5.734;2022-08-25T12:10:19;2.22;;;1.50;;
55288;SDS011;41154;45.394;5.734;2022-08-25T12:13:05;1.92;;;1.70;;
55288;SDS011;41154;45.394;5.734;2022-08-25T12:16:05;3.00;;;1.90;;
55288;SDS011;41154;45.394;5.734;2022-08-25T12:21:08;3.45;;;1.60;;
55288;SDS011;41154;45.394;5.734;2022-08-25T12:26:12;1.70;;;1.60;;
55288;SDS011;41154;45.394;5.734;2022-08-25T12:31:57;5.43;;;1.50;;
55288;SDS011;41154;45.394;5.734;2022-08-25T12:37:23;1.85;;;1.40;;
55288;SDS011;41154;45.394;5.734;2022-08-25T12:47:51;2.80;;;1.20;;
55288;SDS011;41154;45.394;5.734;2022-08-25T12:53:22;1.73;;;1.27;;
55288;SDS011;41154;45.394;5.734;2022-08-25T12:56:02;2.70;;;1.33;;
55288;SDS011;41154;45.394;5.734;2022-08-25T12:58:53;1.20;;;1.10;;
55288;SDS011;41154;45.394;5.734;2022-08-25T13:12:25;2.35;;;1.20;;
55288;SDS011;41154;45.394;5.734;2022-08-25T13:14:59;1.85;;;1.17;;
55288;SDS011;41154;45.394;5.734;2022-08-25T13:17:26;3.80;;;1.02;;
55288;SDS011;41154;45.394;5.734;2022-08-25T13:22:49;3.25;;;1.02;;
55288;SDS011;41154;45.394;5.734;2022-08-25T13:25:18;2.92;;;1.20;;
55288;SDS011;41154;45.394;5.734;2022-08-25T13:27:50;2.28;;;1.05;;
55288;SDS011;41154;45.394;5.734;2022-08-25T13:30:30;2.20;;;1.30;;
55288;SDS011;41154;45.394;5.734;2022-08-25T13:32:58;2.25;;;1.20;;
55288;SDS011;41154;45.394;5.734;2022-08-25T13:35:29;1.60;;;1.20;;
55288;SDS011;41154;45.394;5.734;2022-08-25T13:38:13;1.27;;;1.13;;
55288;SDS011;41154;45.394;5.734;2022-08-25T13:40:40;1.50;;;1.10;;
55288;SDS011;41154;45.394;5.734;2022-08-25T13:43:06;2.00;;;1.30;;
55288;SDS011;41154;45.394;5.734;2022-08-25T13:45:42;1.90;;;1.30;;
55288;SDS011;41154;45.394;5.734;2022-08-25T13:50:38;2.15;;;1.23;;
55288;SDS011;41154;45.394;5.734;2022-08-25T13:53:19;3.28;;;1.30;;
55288;SDS011;41154;45.394;5.734;2022-08-25T13:55:54;2.13;;;1.40;;
55288;SDS011;41154;45.394;5.734;2022-08-25T13:58:26;2.70;;;1.30;;
55288;SDS011;41154;45.394;5.734;2022-08-25T14:01:08;1.55;;;1.23;;
55288;SDS011;41154;45.394;5.734;2022-08-25T14:03:39;1.45;;;1.27;;
55288;SDS011;41154;45.394;5.734;2022-08-25T14:06:18;1.75;;;1.40;;
55288;SDS011;41154;45.394;5.734;2022-08-25T14:09:10;1.88;;;1.35;;
55288;SDS011;41154;45.394;5.734;2022-08-25T14:11:54;3.28;;;1.15;;
55288;SDS011;41154;45.394;5.734;2022-08-25T14:16:50;1.67;;;1.42;;
55288;SDS011;41154;45.394;5.734;2022-08-25T14:19:20;1.42;;;1.30;;
55288;SDS011;41154;45.394;5.734;2022-08-25T14:21:48;1.48;;;1.17;;
55288;SDS011;41154;45.394;5.734;2022-08-25T14:24:19;1.63;;;1.42;;
55288;SDS011;41154;45.394;5.734;2022-08-25T14:26:47;1.38;;;1.20;;
55288;SDS011;41154;45.394;5.734;2022-08-25T14:29:13;1.58;;;1.30;;
55288;SDS011;41154;45.394;5.734;2022-08-25T14:31:41;1.55;;;1.45;;
55288;SDS011;41154;45.394;5.734;2022-08-25T14:34:16;3.13;;;1.40;;
55288;SDS011;41154;45.394;5.734;2022-08-25T14:36:45;2.15;;;1.58;;
55288;SDS011;41154;45.394;5.734;2022-08-25T14:39:12;1.52;;;1.23;;
55288;SDS011;41154;45.394;5.734;2022-08-25T14:41:39;1.30;;;1.20;;
55288;SDS011;41154;45.394;5.734;2022-08-25T14:44:07;1.40;;;1.30;;
55288;SDS011;41154;45.394;5.734;2022-08-25T14:46:35;1.73;;;1.27;;
55288;SDS011;41154;45.394;5.734;2022-08-25T14:49:09;1.52;;;1.40;;
55288;SDS011;41154;45.394;5.734;2022-08-25T14:51:37;1.42;;;1.25;;
55288;SDS011;41154;45.394;5.734;2022-08-25T14:54:06;1.30;;;1.20;;
55288;SDS011;41154;45.394;5.734;2022-08-25T14:56:37;1.83;;;1.42;;
55288;SDS011;41154;45.394;5.734;2022-08-25T14:59:03;1.90;;;1.30;;
55288;SDS011;41154;45.394;5.734;2022-08-25T15:01:29;1.27;;;1.17;;
55288;SDS011;41154;45.394;5.734;2022-08-25T15:03:56;2.83;;;1.25;;
55288;SDS011;41154;45.394;5.734;2022-08-25T15:06:26;1.55;;;1.20;;
55288;SDS011;41154;45.394;5.734;2022-08-25T15:08:52;1.88;;;1.60;;
55288;SDS011;41154;45.394;5.734;2022-08-25T15:11:39;1.40;;;1.30;;
55288;SDS011;41154;45.394;5.734;2022-08-25T15:14:09;1.37;;;1.20;;
55288;SDS011;41154;45.394;5.734;2022-08-25T15:16:38;2.45;;;1.40;;
55288;SDS011;41154;45.394;5.734;2022-08-25T15:19:06;2.08;;;1.30;;
55288;SDS011;41154;45.394;5.734;2022-08-25T15:21:35;2.17;;;1.35;;
55288;SDS011;41154;45.394;5.734;2022-08-25T15:24:02;1.10;;;1.02;;
55288;SDS011;41154;45.394;5.734;2022-08-25T15:26:29;2.35;;;1.30;;
55288;SDS011;41154;45.394;5.734;2022-08-25T15:28:55;1.80;;;1.17;;
55288;SDS011;41154;45.394;5.734;2022-08-25T15:31:21;1.40;;;1.30;;
55288;SDS011;41154;45.394;5.734;2022-08-25T15:33:47;1.90;;;1.23;;
55288;SDS011;41154;45.394;5.734;2022-08-25T15:36:15;1.67;;;1.27;;
55288;SDS011;41154;45.394;5.734;2022-08-25T15:38:43;2.20;;;1.30;;
55288;SDS011;41154;45.394;5.734;2022-08-25T15:41:09;2.55;;;1.10;;
55288;SDS011;41154;45.394;5.734;2022-08-25T15:43:36;2.58;;;1.60;;
55288;SDS011;41154;45.394;5.734;2022-08-25T15:46:03;1.88;;;1.30;;
55288;SDS011;41154;45.394;5.734;2022-08-25T15:48:30;1.98;;;1.42;;
55288;SDS011;41154;45.394;5.734;2022-08-25T15:50:57;1.50;;;1.40;;
55288;SDS011;41154;45.394;5.734;2022-08-25T15:53:26;1.90;;;1.20;;
55288;SDS011;41154;45.394;5.734;2022-08-25T15:55:54;2.03;;;1.15;;
55288;SDS011;41154;45.394;5.734;2022-08-25T15:58:21;4.47;;;1.48;;
55288;SDS011;41154;45.394;5.734;2022-08-25T16:00:47;2.50;;;1.25;;
55288;SDS011;41154;45.394;5.734;2022-08-25T16:03:14;2.22;;;1.25;;
55288;SDS011;41154;45.394;5.734;2022-08-25T16:05:40;1.40;;;1.20;;
55288;SDS011;41154;45.394;5.734;2022-08-25T16:08:07;1.30;;;1.20;;
55288;SDS011;41154;45.394;5.734;2022-08-25T16:10:38;6.82;;;1.40;;
55288;SDS011;41154;45.394;5.734;2022-08-25T16:13:06;1.85;;;1.30;;
55288;SDS011;41154;45.394;5.734;2022-08-25T16:15:32;1.42;;;1.33;;
55288;SDS011;41154;45.394;5.734;2022-08-25T16:18:00;2.38;;;1.40;;
55288;SDS011;41154;45.394;5.734;2022-08-25T16:20:27;1.58;;;1.27;;
55288;SDS011;41154;45.394;5.734;2022-08-25T16:22:54;2.08;;;1.70;;
55288;SDS011;41154;45.394;5.734;2022-08-25T16:25:22;1.48;;;1.35;;
55288;SDS011;41154;45.394;5.734;2022-08-25T16:27:48;3.80;;;1.40;;
55288;SDS011;41154;45.394;5.734;2022-08-25T16:30:15;2.00;;;1.38;;
55288;SDS011;41154;45.394;5.734;2022-08-25T16:32:42;1.63;;;1.42;;
55288;SDS011;41154;45.394;5.734;2022-08-25T16:35:08;1.30;;;1.20;;
55288;SDS011;41154;45.394;5.734;2022-08-25T16:37:35;1.60;;;1.10;;
55288;SDS011;41154;45.394;5.734;2022-08-25T16:40:01;3.50;;;1.40;;
55288;SDS011;41154;45.394;5.734;2022-08-25T16:42:27;2.15;;;1.40;;
55288;SDS011;41154;45.394;5.734;2022-08-25T16:44:53;2.85;;;1.67;;
55288;SDS011;41154;45.394;5.734;2022-08-25T16:47:19;4.78;;;1.60;;
55288;SDS011;41154;45.394;5.734;2022-08-25T16:49:45;2.22;;;1.73;;
55288;SDS011;41154;45.394;5.734;2022-08-25T16:52:11;2.40;;;1.77;;
55288;SDS011;41154;45.394;5.734;2022-08-25T16:57:42;2.90;;;1.80;;
55288;SDS011;41154;45.394;5.734;2022-08-25T17:00:16;4.10;;;1.80;;
55288;SDS011;41154;45.394;5.734;2022-08-25T17:02:43;2.55;;;1.90;;
55288;SDS011;41154;45.394;5.734;2022-08-25T17:05:09;2.65;;;1.60;;
55288;SDS011;41154;45.394;5.734;2022-08-25T17:07:35;4.82;;;2.00;;
55288;SDS011;41154;45.394;5.734;2022-08-25T17:10:03;2.45;;;2.00;;
55288;SDS011;41154;45.394;5.734;2022-08-25T17:12:30;3.63;;;1.92;;
55288;SDS011;41154;45.394;5.734;2022-08-25T17:14:56;2.58;;;1.70;;
55288;SDS011;41154;45.394;5.734;2022-08-25T17:17:22;2.92;;;1.70;;
55288;SDS011;41154;45.394;5.734;2022-08-25T17:19:48;2.42;;;1.80;;
55288;SDS011;41154;45.394;5.734;2022-08-25T17:22:14;2.88;;;1.70;;